createdAt,value
2023-04-28T00:00:06.857Z,16.45
2023-04-28T00:02:33.974Z,16.46
2023-04-28T00:05:01.485Z,16.45
2023-04-28T00:07:28.400Z,16.42
2023-04-28T00:09:56.496Z,16.43
2023-04-28T00:12:23.541Z,16.46
2023-04-28T00:14:50.625Z,16.45
2023-04-28T00:17:17.603Z,16.44
2023-04-28T00:19:44.694Z,16.45
2023-04-28T00:22:11.781Z,16.44
2023-04-28T00:24:38.893Z,16.43
2023-04-28T00:27:05.689Z,16.42
2023-04-28T00:29:32.880Z,16.42
2023-04-28T00:31:59.886Z,16.36
2023-04-28T00:34:27.438Z,16.34
2023-04-28T00:36:54.552Z,16.36
2023-04-28T00:39:22.930Z,16.35
2023-04-28T00:41:49.871Z,16.34
2023-04-28T00:44:17.397Z,16.31
2023-04-28T00:46:44.991Z,16.28
2023-04-28T00:49:11.850Z,16.27
2023-04-28T00:51:38.681Z,16.26
2023-04-28T00:54:06.377Z,16.27
2023-04-28T00:56:33.516Z,16.28
2023-04-28T00:59:00.438Z,16.31
2023-04-28T01:01:27.364Z,16.30
2023-04-28T01:03:54.564Z,16.27
2023-04-28T01:06:23.325Z,16.24
2023-04-28T01:08:50.864Z,16.22
2023-04-28T01:11:17.739Z,16.21
2023-04-28T01:14:10.662Z,16.22
2023-04-28T01:16:39.383Z,16.25
2023-04-28T01:19:13.902Z,16.27
2023-04-28T01:21:40.950Z,16.29
2023-04-28T01:24:16.412Z,16.31
2023-04-28T01:26:44.693Z,16.31
2023-04-28T01:29:11.968Z,16.30
2023-04-28T01:31:38.945Z,16.29
2023-04-28T01:34:06.086Z,16.27
2023-04-28T01:36:34.252Z,16.26
2023-04-28T01:39:03.499Z,16.25
2023-04-28T01:41:30.780Z,16.25
2023-04-28T01:43:57.661Z,16.25
2023-04-28T01:46:25.754Z,16.25
2023-04-28T01:48:52.990Z,16.20
2023-04-28T01:51:19.780Z,16.11
2023-04-28T01:53:46.714Z,16.08
2023-04-28T01:56:13.469Z,16.07
2023-04-28T01:58:40.813Z,16.07
2023-04-28T02:01:08.119Z,16.06
2023-04-28T02:03:35.490Z,16.03
2023-04-28T02:06:04.334Z,15.99
2023-04-28T02:08:31.828Z,15.98
2023-04-28T02:11:01.098Z,15.93
2023-04-28T02:13:28.636Z,15.87
2023-04-28T02:15:55.907Z,15.84
2023-04-28T02:18:22.843Z,15.82
2023-04-28T02:20:49.904Z,15.80
2023-04-28T02:23:17.799Z,15.78
2023-04-28T02:25:44.613Z,15.78
2023-04-28T02:28:13.690Z,15.78
2023-04-28T02:30:40.845Z,15.78
2023-04-28T02:33:07.809Z,15.79
2023-04-28T02:35:34.653Z,15.81
2023-04-28T02:38:01.531Z,15.81
2023-04-28T02:40:28.564Z,15.79
2023-04-28T02:42:55.390Z,15.75
2023-04-28T02:45:22.115Z,15.70
2023-04-28T02:47:48.984Z,15.65
2023-04-28T02:50:17.151Z,15.59
2023-04-28T02:52:43.841Z,15.51
2023-04-28T02:55:11.101Z,15.49
2023-04-28T02:57:38.008Z,15.47
2023-04-28T03:00:06.159Z,15.46
2023-04-28T03:02:39.526Z,15.43
2023-04-28T03:05:07.062Z,15.38
2023-04-28T03:07:33.951Z,15.36
2023-04-28T03:10:00.714Z,15.35
2023-04-28T03:12:27.579Z,15.36
2023-04-28T03:14:54.589Z,15.33
2023-04-28T03:17:21.447Z,15.30
2023-04-28T03:19:48.699Z,15.31
2023-04-28T03:22:15.744Z,15.33
2023-04-28T03:24:42.915Z,15.35
2023-04-28T03:27:09.832Z,15.37
2023-04-28T03:29:37.335Z,15.40
2023-04-28T03:32:04.813Z,15.38
2023-04-28T03:34:31.562Z,15.36
2023-04-28T03:36:58.749Z,15.31
2023-04-28T03:39:28.459Z,15.29
2023-04-28T03:41:55.611Z,15.29
2023-04-28T03:44:45.323Z,15.33
2023-04-28T03:47:12.955Z,15.37
2023-04-28T03:49:40.430Z,15.44
2023-04-28T03:52:07.456Z,15.55
2023-04-28T03:54:34.815Z,15.68
2023-04-28T03:57:02.269Z,15.84
2023-04-28T03:59:32.015Z,16.08
2023-04-28T04:01:59.245Z,16.40
2023-04-28T04:04:26.458Z,16.76
2023-04-28T04:06:54.264Z,17.10
2023-04-28T04:09:21.212Z,17.42
2023-04-28T04:11:47.823Z,17.74
2023-04-28T04:14:16.168Z,18.04
2023-04-28T04:16:43.174Z,18.34
2023-04-28T04:19:10.221Z,18.62
2023-04-28T04:21:41.197Z,18.93
2023-04-28T04:24:08.110Z,19.24
2023-04-28T04:26:35.380Z,19.62
2023-04-28T04:29:03.436Z,20.07
2023-04-28T04:31:32.669Z,20.53
2023-04-28T04:33:59.840Z,21.01
2023-04-28T04:36:27.765Z,21.49
2023-04-28T04:38:54.850Z,21.92
2023-04-28T04:41:22.572Z,22.30
2023-04-28T04:43:50.845Z,22.64
2023-04-28T04:46:17.936Z,22.95
2023-04-28T04:48:45.055Z,23.23
2023-04-28T04:51:11.789Z,23.49
2023-04-28T04:53:39.053Z,23.74
2023-04-28T04:56:06.082Z,24.01
2023-04-28T04:58:33.450Z,24.25
2023-04-28T05:01:18.858Z,24.56
2023-04-28T05:03:45.930Z,24.84
2023-04-28T05:06:12.931Z,25.19
2023-04-28T05:08:45.187Z,25.59
2023-04-28T05:11:12.047Z,25.95
2023-04-28T05:13:40.424Z,26.35
2023-04-28T05:16:07.010Z,26.83
2023-04-28T05:18:42.308Z,27.32
2023-04-28T05:21:11.167Z,27.73
2023-04-28T05:23:38.048Z,28.13
2023-04-28T05:26:04.995Z,28.44
2023-04-28T05:28:31.857Z,28.69
2023-04-28T05:30:58.990Z,28.93
2023-04-28T05:33:26.480Z,29.22
2023-04-28T05:35:53.491Z,29.53
2023-04-28T05:38:23.215Z,29.86
2023-04-28T05:40:51.187Z,30.21
2023-04-28T05:43:18.019Z,30.60
2023-04-28T05:45:45.400Z,30.87
2023-04-28T05:48:12.308Z,30.93
2023-04-28T05:50:39.317Z,30.74
2023-04-28T05:53:07.249Z,30.52
2023-04-28T05:55:35.821Z,30.41
2023-04-28T05:58:03.498Z,30.43
2023-04-28T06:00:31.186Z,30.53
2023-04-28T06:02:58.873Z,30.56
2023-04-28T06:05:26.245Z,30.48
2023-04-28T06:07:55.679Z,30.29
2023-04-28T06:10:23.026Z,30.12
2023-04-28T06:12:50.395Z,30.10
2023-04-28T06:15:17.309Z,30.11
2023-04-28T06:17:44.358Z,30.04
2023-04-28T06:20:13.381Z,30.00
2023-04-28T06:22:40.950Z,29.94
2023-04-28T06:25:08.606Z,29.95
2023-04-28T06:27:41.559Z,30.03
2023-04-28T06:30:09.476Z,29.92
2023-04-28T06:32:37.000Z,29.89
2023-04-28T06:35:04.491Z,29.91
2023-04-28T06:37:31.878Z,29.82
2023-04-28T06:39:58.783Z,29.77
2023-04-28T06:42:26.952Z,29.84
2023-04-28T06:45:04.659Z,29.99
2023-04-28T06:47:31.441Z,30.03
2023-04-28T06:50:01.468Z,30.17
2023-04-28T06:52:38.498Z,30.36
2023-04-28T06:55:08.890Z,30.51
2023-04-28T06:57:37.414Z,30.69
2023-04-28T07:00:05.399Z,30.70
2023-04-28T07:02:32.841Z,30.46
2023-04-28T07:05:00.004Z,29.82
2023-04-28T07:07:26.729Z,29.04
2023-04-28T07:09:53.657Z,28.31
2023-04-28T07:12:21.275Z,27.95
2023-04-28T07:14:48.406Z,27.71
2023-04-28T07:17:15.455Z,27.39
2023-04-28T07:19:42.190Z,27.09
2023-04-28T07:22:08.987Z,26.76
2023-04-28T07:24:35.963Z,26.39
2023-04-28T07:27:03.272Z,26.13
2023-04-28T07:29:33.559Z,25.94
2023-04-28T07:32:03.014Z,25.55
2023-04-28T07:34:31.242Z,25.16
2023-04-28T07:36:58.212Z,25.14
2023-04-28T07:39:25.032Z,25.42
2023-04-28T07:41:51.983Z,25.67
2023-04-28T07:44:19.038Z,25.74
2023-04-28T07:46:46.008Z,25.62
2023-04-28T07:49:12.732Z,25.44
2023-04-28T07:51:39.658Z,25.23
2023-04-28T07:54:06.682Z,25.01
2023-04-28T07:56:33.609Z,24.85
2023-04-28T07:59:00.648Z,24.77
2023-04-28T08:01:27.548Z,24.61
2023-04-28T08:03:54.775Z,24.42
2023-04-28T08:06:21.864Z,24.22
2023-04-28T08:08:48.802Z,23.98
2023-04-28T08:11:15.946Z,23.69
2023-04-28T08:13:43.001Z,23.53
2023-04-28T08:16:09.657Z,23.50
2023-04-28T08:18:36.819Z,23.50
2023-04-28T08:21:04.477Z,23.43
2023-04-28T08:23:31.499Z,23.28
2023-04-28T08:25:58.448Z,23.10
2023-04-28T08:28:25.700Z,23.01
2023-04-28T08:30:55.030Z,22.99
2023-04-28T08:33:23.308Z,23.05
2023-04-28T08:35:50.764Z,23.17
2023-04-28T08:38:17.722Z,23.26
2023-04-28T08:40:44.864Z,23.16
2023-04-28T08:43:13.235Z,22.94
2023-04-28T08:45:42.361Z,22.74
2023-04-28T08:48:19.869Z,22.62
2023-04-28T08:50:52.111Z,22.58
2023-04-28T08:53:25.238Z,22.55
2023-04-28T08:55:58.696Z,22.49
2023-04-28T08:58:26.743Z,22.47
2023-04-28T09:00:54.106Z,22.49
2023-04-28T09:03:21.438Z,22.46
2023-04-28T09:05:48.702Z,22.45
2023-04-28T09:08:15.448Z,22.51
2023-04-28T09:10:42.439Z,22.67
2023-04-28T09:13:09.238Z,22.68
2023-04-28T09:15:37.715Z,22.50
2023-04-28T09:18:05.734Z,22.33
2023-04-28T09:20:33.456Z,22.26
2023-04-28T09:23:15.796Z,22.23
2023-04-28T09:26:15.104Z,22.26
2023-04-28T09:28:41.893Z,22.20
2023-04-28T09:31:25.359Z,22.11
2023-04-28T09:33:59.487Z,22.06
2023-04-28T09:36:29.029Z,22.16
2023-04-28T09:38:59.736Z,22.29
2023-04-28T09:41:40.993Z,22.26
2023-04-28T09:44:18.488Z,22.29
2023-04-28T09:46:46.112Z,22.32
2023-04-28T09:49:13.206Z,22.32
2023-04-28T09:51:40.357Z,22.38
2023-04-28T09:54:07.142Z,22.36
2023-04-28T09:56:39.755Z,22.25
2023-04-28T09:59:06.625Z,22.19
2023-04-28T10:01:40.352Z,22.22
2023-04-28T10:04:07.918Z,22.35
2023-04-28T10:06:38.130Z,22.50
2023-04-28T10:09:05.230Z,22.63
2023-04-28T10:11:33.446Z,22.59
2023-04-28T10:14:00.482Z,22.46
2023-04-28T10:16:29.956Z,22.43
2023-04-28T10:18:56.755Z,22.40
2023-04-28T10:21:24.220Z,22.29
2023-04-28T10:24:14.669Z,22.20
2023-04-28T10:27:05.324Z,22.24
2023-04-28T10:29:33.290Z,22.28
2023-04-28T10:32:20.638Z,22.27
2023-04-28T10:34:47.845Z,22.25
2023-04-28T10:37:15.069Z,22.23
2023-04-28T10:40:08.983Z,22.25
2023-04-28T10:43:06.706Z,22.35
2023-04-28T10:46:00.322Z,22.48
2023-04-28T10:48:33.189Z,22.59
2023-04-28T10:51:03.442Z,22.73
2023-04-28T10:53:46.465Z,22.74
2023-04-28T10:56:16.241Z,22.60
2023-04-28T10:58:45.522Z,22.52
2023-04-28T11:01:21.640Z,22.36
2023-04-28T11:03:50.902Z,22.11
2023-04-28T11:06:23.635Z,21.99
2023-04-28T11:08:50.662Z,21.95
2023-04-28T11:11:23.337Z,21.92
2023-04-28T11:13:50.187Z,21.89
2023-04-28T11:16:27.112Z,21.86
2023-04-28T11:18:58.374Z,21.80
2023-04-28T11:23:32.449Z,20.67
2023-04-28T11:25:59.215Z,21.80
2023-04-28T11:28:26.268Z,22.00
2023-04-28T11:31:10.901Z,22.10
2023-04-28T11:33:38.831Z,22.21
2023-04-28T11:36:06.942Z,22.37
2023-04-28T11:38:43.810Z,22.53
2023-04-28T11:41:10.612Z,22.64
2023-04-28T11:43:46.948Z,22.80
2023-04-28T11:46:19.038Z,22.92
2023-04-28T11:48:46.041Z,22.89
2023-04-28T11:51:33.128Z,22.78
2023-04-28T11:54:00.979Z,22.59
2023-04-28T11:56:28.522Z,22.43
2023-04-28T11:59:09.020Z,22.35
2023-04-28T12:02:11.826Z,22.33
2023-04-28T12:04:40.118Z,22.38
2023-04-28T12:07:17.408Z,22.31
2023-04-28T12:09:49.034Z,22.31
2023-04-28T12:12:40.118Z,22.44
2023-04-28T12:15:12.664Z,22.63
2023-04-28T12:17:41.290Z,22.76
2023-04-28T12:20:09.930Z,22.88
2023-04-28T12:22:44.507Z,22.92
2023-04-28T12:25:12.500Z,22.98
2023-04-28T12:27:40.810Z,23.00
2023-04-28T12:30:20.238Z,22.83
2023-04-28T12:32:47.500Z,22.51
2023-04-28T12:35:14.918Z,22.24
2023-04-28T12:37:42.449Z,22.04
2023-04-28T12:40:10.182Z,21.77
2023-04-28T12:42:37.026Z,21.58
2023-04-28T12:45:05.400Z,21.55
2023-04-28T12:47:32.208Z,21.64
2023-04-28T12:49:58.986Z,21.82
2023-04-28T12:52:25.859Z,21.92
2023-04-28T12:54:52.778Z,21.91
2023-04-28T12:57:19.766Z,21.83
2023-04-28T12:59:47.710Z,21.77
2023-04-28T13:02:15.052Z,21.82
2023-04-28T13:04:51.585Z,21.91
2023-04-28T13:07:18.702Z,22.06
2023-04-28T13:09:46.781Z,22.22
2023-04-28T13:12:14.474Z,22.36
2023-04-28T13:14:41.943Z,22.37
2023-04-28T13:17:10.096Z,22.37
2023-04-28T13:19:37.567Z,22.34
2023-04-28T13:22:06.289Z,22.27
2023-04-28T13:24:33.101Z,22.27
2023-04-28T13:27:00.024Z,22.11
2023-04-28T13:29:26.976Z,21.85
2023-04-28T13:31:54.400Z,21.67
2023-04-28T13:34:21.436Z,21.57
2023-04-28T13:36:50.773Z,21.52
2023-04-28T13:39:19.677Z,21.49
2023-04-28T13:41:46.576Z,21.45
2023-04-28T13:44:13.480Z,21.47
2023-04-28T13:46:41.047Z,21.48
2023-04-28T13:49:11.411Z,21.49
2023-04-28T13:51:38.787Z,21.52
2023-04-28T13:54:08.380Z,21.57
2023-04-28T13:56:36.037Z,21.55
2023-04-28T13:59:03.082Z,21.51
2023-04-28T14:01:30.377Z,21.37
2023-04-28T14:03:57.436Z,21.22
2023-04-28T14:06:24.641Z,21.08
2023-04-28T14:08:51.904Z,20.95
2023-04-28T14:11:19.322Z,20.82
2023-04-28T14:13:46.296Z,20.70
2023-04-28T14:16:13.499Z,20.63
2023-04-28T14:18:40.909Z,20.61
2023-04-28T14:21:07.917Z,20.62
2023-04-28T14:23:34.999Z,20.67
2023-04-28T14:26:01.962Z,20.70
2023-04-28T14:28:29.129Z,20.69
2023-04-28T14:30:56.173Z,20.61
2023-04-28T14:33:23.680Z,20.56
2023-04-28T14:35:50.527Z,20.58
2023-04-28T14:38:17.444Z,20.64
2023-04-28T14:40:44.349Z,20.70
2023-04-28T14:43:11.517Z,20.63
2023-04-28T14:45:38.462Z,20.59
2023-04-28T14:48:07.390Z,20.57
2023-04-28T14:50:34.610Z,20.49
2023-04-28T14:53:06.347Z,20.39
2023-04-28T14:55:33.218Z,20.32
2023-04-28T14:58:00.451Z,20.24
2023-04-28T15:00:27.402Z,20.18
2023-04-28T15:02:54.537Z,20.18
2023-04-28T15:05:21.496Z,20.22
2023-04-28T15:07:48.567Z,20.23
2023-04-28T15:10:15.723Z,20.23
2023-04-28T15:12:43.867Z,20.21
2023-04-28T15:15:11.478Z,20.18
2023-04-28T15:17:40.116Z,20.10
2023-04-28T15:20:08.036Z,20.02
2023-04-28T15:22:36.279Z,19.96
2023-04-28T15:25:03.725Z,19.92
2023-04-28T15:27:31.700Z,19.79
2023-04-28T15:29:58.774Z,19.65
2023-04-28T15:32:26.231Z,19.52
2023-04-28T15:34:54.217Z,19.45
2023-04-28T15:37:41.101Z,19.41
2023-04-28T15:40:11.935Z,19.38
2023-04-28T15:42:48.215Z,19.36
2023-04-28T15:45:15.951Z,19.32
2023-04-28T15:47:43.009Z,19.29
2023-04-28T15:50:10.464Z,19.28
2023-04-28T15:52:47.495Z,19.29
2023-04-28T15:55:18.246Z,19.27
2023-04-28T15:57:46.102Z,19.24
2023-04-28T16:00:15.069Z,19.21
2023-04-28T16:02:43.385Z,19.18
2023-04-28T16:05:10.789Z,19.17
2023-04-28T16:07:40.107Z,19.18
2023-04-28T16:10:08.757Z,19.16
2023-04-28T16:12:36.388Z,19.11
2023-04-28T16:15:03.596Z,19.08
2023-04-28T16:17:30.590Z,19.08
2023-04-28T16:19:57.478Z,19.06
2023-04-28T16:22:24.845Z,19.07
2023-04-28T16:24:53.393Z,19.05
2023-04-28T16:27:20.475Z,19.03
2023-04-28T16:29:47.328Z,19.01
2023-04-28T16:32:14.744Z,18.99
2023-04-28T16:34:42.170Z,18.97
2023-04-28T16:37:10.412Z,18.96
2023-04-28T16:39:37.380Z,18.93
2023-04-28T16:42:05.015Z,18.88
2023-04-28T16:44:32.033Z,18.85
2023-04-28T16:46:59.631Z,18.84
2023-04-28T16:49:26.600Z,18.82
2023-04-28T16:52:00.829Z,18.79
2023-04-28T16:54:28.380Z,18.71
2023-04-28T16:56:55.701Z,18.68
2023-04-28T16:59:22.982Z,18.66
2023-04-28T17:01:49.949Z,18.62
2023-04-28T17:04:17.504Z,18.58
2023-04-28T17:06:45.137Z,18.54
2023-04-28T17:09:12.339Z,18.50
2023-04-28T17:11:39.337Z,18.47
2023-04-28T17:14:06.698Z,18.43
2023-04-28T17:16:34.251Z,18.39
2023-04-28T17:19:01.380Z,18.32
2023-04-28T17:21:28.606Z,18.26
2023-04-28T17:23:59.085Z,18.20
2023-04-28T17:26:27.082Z,18.17
2023-04-28T17:28:55.243Z,18.13
2023-04-28T17:31:22.653Z,18.09
2023-04-28T17:33:50.971Z,18.05
2023-04-28T17:36:18.841Z,18.00
2023-04-28T17:38:45.911Z,17.97
2023-04-28T17:41:12.933Z,17.96
2023-04-28T17:43:39.988Z,17.96
2023-04-28T17:46:07.270Z,17.94
2023-04-28T17:48:34.522Z,17.91
2023-04-28T17:51:01.440Z,17.88
2023-04-28T17:53:28.280Z,17.85
2023-04-28T17:55:55.247Z,17.81
2023-04-28T17:58:22.790Z,17.79
2023-04-28T18:00:49.955Z,17.76
2023-04-28T18:03:16.841Z,17.71
2023-04-28T18:05:43.780Z,17.66
2023-04-28T18:08:10.678Z,17.63
2023-04-28T18:10:37.518Z,17.60
2023-04-28T18:13:05.908Z,17.57
2023-04-28T18:15:32.679Z,17.57
2023-04-28T18:17:59.851Z,17.57
2023-04-28T18:20:27.614Z,17.55
2023-04-28T18:22:56.156Z,17.51
2023-04-28T18:25:23.391Z,17.48
2023-04-28T18:27:50.552Z,17.43
2023-04-28T18:30:17.602Z,17.40
2023-04-28T18:32:44.549Z,17.36
2023-04-28T18:35:12.108Z,17.32
2023-04-28T18:37:38.919Z,17.29
2023-04-28T18:40:06.257Z,17.23
2023-04-28T18:42:33.666Z,17.17
2023-04-28T18:45:00.997Z,17.13
2023-04-28T18:47:28.259Z,17.09
2023-04-28T18:49:55.729Z,17.09
2023-04-28T18:52:22.781Z,17.10
2023-04-28T18:54:49.827Z,17.08
2023-04-28T18:57:16.521Z,17.05
2023-04-28T18:59:43.623Z,17.02
2023-04-28T19:02:10.848Z,16.99
2023-04-28T19:04:41.549Z,16.95
2023-04-28T19:07:08.658Z,16.93
2023-04-28T19:09:35.722Z,16.93
2023-04-28T19:12:03.091Z,16.92
2023-04-28T19:14:30.529Z,16.93
2023-04-28T19:16:57.307Z,16.94
2023-04-28T19:19:24.322Z,16.93
2023-04-28T19:21:52.195Z,16.93
2023-04-28T19:24:19.137Z,16.93
2023-04-28T19:26:46.099Z,16.91
2023-04-28T19:29:16.611Z,16.89
2023-04-28T19:31:44.070Z,16.86
2023-04-28T19:34:11.117Z,16.81
2023-04-28T19:36:37.859Z,16.78
2023-04-28T19:39:05.218Z,16.77
2023-04-28T19:41:32.466Z,16.74
2023-04-28T19:43:59.510Z,16.72
2023-04-28T19:46:26.444Z,16.68
2023-04-28T19:48:53.625Z,16.64
2023-04-28T19:51:20.790Z,16.61
2023-04-28T19:53:48.333Z,16.60
2023-04-28T19:56:15.113Z,16.60
2023-04-28T19:58:42.122Z,16.60
2023-04-28T20:01:08.908Z,16.58
2023-04-28T20:03:36.319Z,16.53
2023-04-28T20:06:03.780Z,16.49
2023-04-28T20:08:30.719Z,16.44
2023-04-28T20:10:57.775Z,16.38
2023-04-28T20:13:25.652Z,16.31
2023-04-28T20:15:53.664Z,16.28
2023-04-28T20:18:20.682Z,16.26
2023-04-28T20:20:47.434Z,16.28
2023-04-28T20:23:14.277Z,16.29
2023-04-28T20:25:41.334Z,16.28
2023-04-28T20:28:08.358Z,16.27
2023-04-28T20:30:36.222Z,16.27
2023-04-28T20:33:03.449Z,16.25
2023-04-28T20:35:31.544Z,16.22
2023-04-28T20:37:58.798Z,16.15
2023-04-28T20:40:25.739Z,16.10
2023-04-28T20:42:52.952Z,16.08
2023-04-28T20:45:20.672Z,16.06
2023-04-28T20:47:47.565Z,16.05
2023-04-28T20:50:15.205Z,16.02
2023-04-28T20:52:42.231Z,15.96
2023-04-28T20:55:10.054Z,15.94
2023-04-28T20:57:37.078Z,15.94
2023-04-28T21:00:06.338Z,15.95
2023-04-28T21:02:33.423Z,15.96
2023-04-28T21:05:01.352Z,15.93
2023-04-28T21:07:28.840Z,15.89
2023-04-28T21:09:57.678Z,15.83
2023-04-28T21:12:24.783Z,15.79
2023-04-28T21:14:52.029Z,15.76
2023-04-28T21:17:19.044Z,15.72
2023-04-28T21:19:45.978Z,15.71
2023-04-28T21:22:14.181Z,15.65
2023-04-28T21:24:41.127Z,15.58
2023-04-28T21:27:08.698Z,15.49
2023-04-28T21:29:35.745Z,15.39
2023-04-28T21:32:02.870Z,15.30
2023-04-28T21:34:30.159Z,15.20
2023-04-28T21:36:57.908Z,15.12
2023-04-28T21:39:27.167Z,15.07
2023-04-28T21:41:54.373Z,15.02
2023-04-28T21:48:52.065Z,12.79
2023-04-28T21:51:19.015Z,14.64
2023-04-28T21:53:45.961Z,14.83
2023-04-28T21:56:14.587Z,14.89
2023-04-28T21:58:41.553Z,14.88
2023-04-28T22:01:08.249Z,14.84
2023-04-28T22:03:35.724Z,14.78
2023-04-28T22:06:02.981Z,14.73
2023-04-28T22:08:30.983Z,14.70
2023-04-28T22:10:57.628Z,14.68
2023-04-28T22:13:24.717Z,14.69
2023-04-28T22:15:51.596Z,14.68
2023-04-28T22:18:19.006Z,14.64
2023-04-28T22:20:46.369Z,14.61
2023-04-28T22:23:13.615Z,14.59
2023-04-28T22:25:40.642Z,14.58
2023-04-28T22:28:07.541Z,14.58
2023-04-28T22:30:34.566Z,14.56
2023-04-28T22:33:01.435Z,14.54
2023-04-28T22:35:28.114Z,14.53
2023-04-28T22:37:54.893Z,14.53
2023-04-28T22:40:22.038Z,14.51
2023-04-28T22:42:49.303Z,14.46
2023-04-28T22:45:16.470Z,14.41
2023-04-28T22:47:43.365Z,14.36
2023-04-28T22:50:10.852Z,14.32
2023-04-28T22:52:38.519Z,14.29
2023-04-28T22:55:05.977Z,14.29
2023-04-28T22:57:33.767Z,14.29
2023-04-28T23:00:01.493Z,14.28
2023-04-28T23:02:28.960Z,14.26
2023-04-28T23:04:56.525Z,14.26
2023-04-28T23:07:23.883Z,14.28
2023-04-28T23:09:51.074Z,14.30
2023-04-28T23:12:18.289Z,14.32
2023-04-28T23:14:45.083Z,14.32
2023-04-28T23:17:12.179Z,14.32
2023-04-28T23:19:39.126Z,14.32
2023-04-28T23:22:07.219Z,14.33
2023-04-28T23:24:36.204Z,14.43
2023-04-28T23:27:03.168Z,14.43
2023-04-28T23:29:30.024Z,14.46
2023-04-28T23:31:57.353Z,14.45
2023-04-28T23:34:24.697Z,14.47
2023-04-28T23:36:51.540Z,14.48
2023-04-28T23:39:18.429Z,14.42
2023-04-28T23:41:45.356Z,14.33
2023-04-28T23:44:12.371Z,14.22
2023-04-28T23:46:39.505Z,14.11
2023-04-28T23:49:06.578Z,14.00
2023-04-28T23:51:33.467Z,13.88
2023-04-28T23:54:01.507Z,13.83
2023-04-28T23:56:28.564Z,13.84
2023-04-28T23:58:55.703Z,13.88
